Time;durP1;ratioP1;P1;durP2;ratioP2;P2;SDS_P1;SDS_P2;PMS_P1;PMS_P2;Temp;Humidity;BMP_temperature;BMP_pressure;BME280_temperature;BME280_humidity;BME280_pressure;Samples;Min_cycle;Max_cycle;Signal;HPM_P1;HPM_P2
2022/08/29 00:14:14;;;;;;;11.10;7.40;;;;;;;22.31;100.00;100112.39;656196;1280;26408;-80
2022/08/29 00:29:26;;;;;;;9.70;6.90;;;;;;;22.18;100.00;100091.70;655828;1279;25355;-82
2022/08/29 00:44:29;;;;;;;10.40;7.30;;;;;;;22.12;100.00;100088.66;655316;1280;25408;-82
2022/08/29 00:59:36;;;;;;;9.80;7.00;;;;;;;22.05;100.00;100101.08;656346;1279;24516;-81
2022/08/29 01:14:46;;;;;;;10.80;7.10;;;;;;;22.03;100.00;100102.90;656608;1279;23922;-83
2022/08/29 01:29:50;;;;;;;12.00;7.80;;;;;;;21.90;100.00;100106.88;656722;1279;22630;-82
2022/08/29 01:44:56;;;;;;;11.80;8.40;;;;;;;22.09;100.00;100130.23;656238;1280;24332;-83
2022/08/29 02:00:01;;;;;;;11.20;7.80;;;;;;;22.07;100.00;100147.90;655758;1280;24306;-83
2022/08/29 02:15:07;;;;;;;10.90;7.40;;;;;;;21.98;100.00;100174.81;656618;1279;22544;-83
2022/08/29 02:30:13;;;;;;;12.00;7.40;;;;;;;22.14;100.00;100182.45;656838;1280;23481;-85
2022/08/29 02:45:16;;;;;;;9.10;6.20;;;;;;;21.87;100.00;100188.96;656884;1279;26434;-83
2022/08/29 03:00:24;;;;;;;9.40;7.20;;;;;;;21.70;100.00;100191.20;655461;1280;25548;-82
2022/08/29 03:15:27;;;;;;;11.00;7.50;;;;;;;21.61;100.00;100198.13;655959;1279;26514;-82
2022/08/29 03:30:31;;;;;;;9.60;7.90;;;;;;;21.63;100.00;100197.48;656135;1279;23506;-82
2022/08/29 03:45:34;;;;;;;13.20;9.00;;;;;;;21.21;100.00;100204.06;656258;1280;22538;-83
2022/08/29 04:00:37;;;;;;;10.60;7.70;;;;;;;20.86;100.00;100208.26;655609;1279;22627;-83
2022/08/29 04:15:41;;;;;;;13.90;8.60;;;;;;;20.71;100.00;100220.34;657685;1279;24403;-83
2022/08/29 04:30:47;;;;;;;12.40;8.00;;;;;;;20.68;100.00;100226.40;656849;1277;22784;-84
2022/08/29 04:45:56;;;;;;;12.90;7.10;;;;;;;20.49;100.00;100238.69;658171;1277;23591;-84
2022/08/29 05:00:59;;;;;;;9.80;6.80;;;;;;;20.31;100.00;100238.84;657901;1275;22704;-83
2022/08/29 05:16:05;;;;;;;12.30;8.00;;;;;;;20.16;100.00;100249.13;657836;1277;26633;-84
2022/08/29 05:31:10;;;;;;;12.60;8.60;;;;;;;20.08;100.00;100262.00;657122;1277;24471;-84
2022/08/29 05:46:15;;;;;;;13.60;8.80;;;;;;;20.03;100.00;100264.52;657974;1277;23514;-82
2022/08/29 06:01:26;;;;;;;13.60;9.00;;;;;;;20.01;100.00;100266.48;658416;1276;25261;-84
2022/08/29 06:16:31;;;;;;;17.60;8.80;;;;;;;19.96;100.00;100274.27;657621;1277;22595;-84
2022/08/29 06:31:34;;;;;;;13.60;7.40;;;;;;;19.82;100.00;100283.98;657939;1277;25239;-85
2022/08/29 06:46:41;;;;;;;11.10;6.20;;;;;;;19.78;100.00;100292.17;657440;1277;25269;-84
2022/08/29 07:01:46;;;;;;;10.60;6.60;;;;;;;19.56;100.00;100305.02;657027;1277;140111;-85
2022/08/29 07:16:50;;;;;;;11.70;6.10;;;;;;;19.85;100.00;100313.55;656629;1277;138866;-83
2022/08/29 07:31:53;;;;;;;16.00;6.50;;;;;;;20.34;100.00;100320.69;663307;1276;139006;-84
2022/08/29 07:46:59;;;;;;;11.80;7.40;;;;;;;20.63;100.00;100333.27;657873;1277;140252;-84
2022/08/29 08:02:02;;;;;;;15.50;7.70;;;;;;;20.86;100.00;100339.55;655744;1279;140117;-84
2022/08/29 08:17:06;;;;;;;15.00;8.00;;;;;;;21.16;100.00;100347.07;655810;1277;25027;-84
2022/08/29 08:32:09;;;;;;;12.10;6.50;;;;;;;21.24;100.00;100350.02;660332;1278;142340;-84
2022/08/29 08:47:23;;;;;;;14.90;6.80;;;;;;;21.47;100.00;100363.04;659084;1277;142134;-83
2022/08/29 09:03:02;;;;;;;9.50;5.50;;;;;;;21.58;100.00;100369.57;660582;1277;138755;-83
2022/08/29 09:18:15;;;;;;;11.00;5.90;;;;;;;21.92;100.00;100375.61;660145;1276;139076;-83
2022/08/29 09:33:41;;;;;;;7.90;5.20;;;;;;;21.97;100.00;100383.48;660348;1277;139137;-84
2022/08/29 09:48:51;;;;;;;12.20;5.40;;;;;;;22.40;100.00;100384.74;661341;1277;139838;-83
2022/08/29 10:04:02;;;;;;;7.40;4.60;;;;;;;22.70;100.00;100400.22;658779;1277;138959;-85
2022/08/29 10:19:12;;;;;;;6.20;3.10;;;;;;;22.54;100.00;100398.06;659121;1277;138652;-86
2022/08/29 10:34:25;;;;;;;8.00;4.60;;;;;;;23.36;98.77;100398.80;659022;1277;138427;-84
2022/08/29 10:49:54;;;;;;;6.30;3.50;;;;;;;24.33;96.04;100384.41;659021;1277;22562;-86
2022/08/29 11:05:01;;;;;;;7.90;3.30;;;;;;;25.39;88.80;100386.77;659464;1277;139130;-84
2022/08/29 11:20:10;;;;;;;6.50;3.20;;;;;;;25.92;80.94;100389.23;662788;1277;139083;-87
2022/08/29 11:35:27;;;;;;;5.40;2.50;;;;;;;26.00;76.83;100395.66;657244;1277;137961;-86
2022/08/29 11:50:37;;;;;;;4.60;2.50;;;;;;;26.35;73.90;100400.54;655871;1277;138173;-87
2022/08/29 12:05:56;;;;;;;5.10;2.50;;;;;;;26.87;71.15;100401.15;655332;1277;1835426;-87
2022/08/29 12:21:20;;;;;;;3.40;2.40;;;;;;;27.48;69.94;100395.63;657064;1277;138360;-87
2022/08/29 12:37:00;;;;;;;6.50;3.20;;;;;;;26.66;72.02;100390.65;656279;1277;23658;-88
2022/08/29 12:52:07;;;;;;;8.00;3.00;;;;;;;27.22;71.48;100395.32;656046;1277;22542;-87
2022/08/29 13:07:17;;;;;;;4.60;2.50;;;;;;;27.41;69.91;100388.64;657150;1277;29876;-88
2022/08/29 13:22:21;;;;;;;4.80;3.00;;;;;;;27.59;68.08;100384.65;657543;1277;26617;-91
2022/08/29 13:37:32;;;;;;;4.80;2.80;;;;;;;27.95;66.82;100376.03;657373;1277;22623;-88
2022/08/29 13:52:35;;;;;;;5.00;3.20;;;;;;;28.15;65.48;100370.00;657243;1277;25398;-92
2022/08/29 14:07:42;;;;;;;6.20;2.90;;;;;;;28.42;64.62;100366.45;657111;1277;22579;-91
2022/08/29 14:22:47;;;;;;;4.80;2.90;;;;;;;32.46;56.71;100364.94;657791;1277;22544;-91
2022/08/29 14:37:51;;;;;;;5.80;3.10;;;;;;;33.18;54.69;100365.02;657603;1277;23527;-90
2022/08/29 14:52:56;;;;;;;3.40;2.30;;;;;;;34.47;51.13;100356.42;659188;1277;22599;-93
2022/08/29 15:08:00;;;;;;;3.90;2.60;;;;;;;30.66;54.07;100350.33;658333;1277;24479;-93
2022/08/29 15:23:11;;;;;;;6.30;3.00;;;;;;;28.53;58.90;100339.16;657516;1277;25282;-81
2022/08/29 15:38:16;;;;;;;5.70;4.80;;;;;;;30.76;56.62;100338.33;657168;1277;25320;-83
2022/08/29 15:53:19;;;;;;;7.00;4.10;;;;;;;31.32;54.20;100334.88;660292;1277;24362;-88
2022/08/29 16:08:23;;;;;;;10.80;7.80;;;;;;;28.06;59.93;100324.65;656656;1277;23519;-88
2022/08/29 16:23:33;;;;;;;12.80;7.90;;;;;;;26.69;63.08;100334.93;656775;1275;22554;-80
2022/08/29 16:38:38;;;;;;;8.10;5.30;;;;;;;25.41;66.17;100332.61;657234;1277;25372;-83
2022/08/29 16:53:41;;;;;;;6.00;3.80;;;;;;;24.82;68.45;100345.54;657615;1277;23670;-90
2022/08/29 17:23:49;;;;;;;7.40;3.90;;;;;;;24.36;73.32;100373.98;657461;1277;25244;-84
2022/08/29 17:38:54;;;;;;;7.00;4.20;;;;;;;23.95;77.01;100389.13;657063;1277;25366;-88
2022/08/29 17:53:58;;;;;;;7.40;3.30;;;;;;;23.63;79.53;100396.36;657074;1277;26460;-90
2022/08/29 18:09:03;;;;;;;4.70;3.40;;;;;;;23.10;83.46;100401.63;657630;1277;23591;-89
2022/08/29 18:24:09;;;;;;;6.60;3.70;;;;;;;22.74;86.17;100400.45;657890;1277;25276;-90
2022/08/29 18:39:15;;;;;;;12.80;5.30;;;;;;;22.51;87.94;100403.13;658923;1277;22628;-90
2022/08/29 18:54:20;;;;;;;5.20;3.30;;;;;;;22.05;91.82;100417.77;658372;1277;26475;-87
2022/08/29 19:09:31;;;;;;;4.10;3.40;;;;;;;21.71;95.13;100426.21;658237;1277;22586;-90
2022/08/29 19:24:35;;;;;;;6.60;4.00;;;;;;;21.59;98.72;100434.77;658108;1277;23632;-88
2022/08/29 19:39:39;;;;;;;5.10;3.50;;;;;;;21.53;99.85;100440.25;657800;1277;24416;-88
2022/08/29 19:54:44;;;;;;;5.80;3.50;;;;;;;21.39;100.00;100443.37;657476;1277;22568;-87
2022/08/29 20:09:48;;;;;;;6.00;4.50;;;;;;;21.31;100.00;100444.23;657954;1277;22566;-88
2022/08/29 20:24:53;;;;;;;6.20;4.50;;;;;;;21.04;100.00;100452.73;658999;1277;25424;-86
2022/08/29 20:39:58;;;;;;;7.60;5.10;;;;;;;20.72;100.00;100467.30;660167;1277;25551;-86
2022/08/29 20:55:03;;;;;;;7.90;4.70;;;;;;;20.41;100.00;100485.98;659780;1277;25544;-88
2022/08/29 21:10:07;;;;;;;11.30;6.30;;;;;;;20.11;100.00;100489.29;659593;1276;22715;-86
2022/08/29 21:25:12;;;;;;;70.90;47.00;;;;;;;19.96;100.00;100493.14;659491;1277;22561;-87
2022/08/29 21:40:24;;;;;;;41.90;16.40;;;;;;;19.74;100.00;100508.15;659759;1277;22564;-87
2022/08/29 21:55:28;;;;;;;61.70;18.90;;;;;;;19.51;100.00;100518.23;660843;1277;24247;-87
2022/08/29 22:10:36;;;;;;;89.20;30.10;;;;;;;19.26;100.00;100518.48;659683;1277;22856;-87
2022/08/29 22:25:40;;;;;;;9.90;7.10;;;;;;;19.03;100.00;100510.80;662166;1277;22567;-88
2022/08/29 22:40:46;;;;;;;10.40;5.30;;;;;;;18.83;100.00;100518.84;659931;1277;24267;-88
2022/08/29 22:55:49;;;;;;;5.60;3.70;;;;;;;18.73;100.00;100535.70;662762;1277;139144;-84
2022/08/29 23:10:53;;;;;;;6.60;4.00;;;;;;;18.70;100.00;100542.67;658486;1277;139730;-88
2022/08/29 23:25:56;;;;;;;9.40;3.90;;;;;;;18.55;100.00;100539.85;656851;1277;138784;-87
2022/08/29 23:41:01;;;;;;;7.10;3.40;;;;;;;18.51;100.00;100533.17;657501;1277;140029;-87
2022/08/29 23:56:14;;;;;;;5.60;3.70;;;;;;;18.43;100.00;100529.16;655806;1277;2339761;-87
